createdAt,value
2022-09-17T00:01:56.932Z,97.60
2022-09-17T00:04:25.189Z,97.90
2022-09-17T00:06:55.374Z,97.80
2022-09-17T00:09:23.502Z,97.80
2022-09-17T00:11:56.860Z,98.00
2022-09-17T00:14:27.061Z,97.80
2022-09-17T00:16:58.745Z,98.10
2022-09-17T00:19:32.344Z,98.10
2022-09-17T00:22:02.549Z,98.30
2022-09-17T00:24:30.534Z,98.40
2022-09-17T00:26:59.052Z,98.40
2022-09-17T00:29:27.023Z,98.50
2022-09-17T00:31:54.983Z,98.50
2022-09-17T00:34:22.958Z,98.60
2022-09-17T00:36:53.433Z,98.70
2022-09-17T00:39:24.404Z,98.80
2022-09-17T00:41:52.312Z,98.70
2022-09-17T00:44:38.729Z,98.80
2022-09-17T00:47:12.939Z,98.80
2022-09-17T00:49:41.206Z,98.80
2022-09-17T00:52:18.726Z,98.90
2022-09-17T00:54:49.843Z,98.80
2022-09-17T00:57:17.974Z,99.10
2022-09-17T00:59:46.071Z,98.90
2022-09-17T01:02:14.024Z,99.10
2022-09-17T01:04:43.314Z,99.20
2022-09-17T01:07:29.962Z,99.20
2022-09-17T01:10:17.093Z,99.30
2022-09-17T01:12:48.237Z,99.40
2022-09-17T01:15:23.437Z,99.20
2022-09-17T01:17:59.762Z,99.40
2022-09-17T01:20:42.739Z,99.50
2022-09-17T01:23:29.304Z,99.50
2022-09-17T01:26:16.737Z,99.60
2022-09-17T01:28:44.982Z,99.70
2022-09-17T01:31:15.816Z,99.90
2022-09-17T01:34:03.795Z,99.80
2022-09-17T01:36:44.283Z,99.70
2022-09-17T01:39:18.251Z,99.70
2022-09-17T01:41:50.155Z,99.80
2022-09-17T01:44:26.453Z,99.90
2022-09-17T01:46:57.526Z,99.90
2022-09-17T01:49:26.953Z,99.90
2022-09-17T01:51:55.490Z,99.90
2022-09-17T01:54:29.181Z,99.90
2022-09-17T01:57:02.364Z,99.90
2022-09-17T01:59:50.054Z,99.90
2022-09-17T02:02:30.738Z,99.90
2022-09-17T02:05:01.363Z,99.90
2022-09-17T02:07:32.164Z,99.90
2022-09-17T02:10:04.164Z,99.90
2022-09-17T02:12:34.689Z,99.90
2022-09-17T02:15:03.610Z,99.90
2022-09-17T02:17:35.580Z,99.90
2022-09-17T02:20:07.709Z,99.90
2022-09-17T02:22:38.735Z,99.90
2022-09-17T02:25:06.690Z,99.90
2022-09-17T02:27:45.511Z,99.90
2022-09-17T02:30:13.962Z,99.90
2022-09-17T02:32:42.838Z,99.90
2022-09-17T02:35:11.693Z,99.90
2022-09-17T02:37:40.141Z,99.90
2022-09-17T02:40:08.887Z,99.90
2022-09-17T02:42:36.836Z,99.90
2022-09-17T02:45:13.975Z,99.90
2022-09-17T02:48:05.624Z,99.90
2022-09-17T02:50:52.345Z,99.90
2022-09-17T02:53:45.531Z,99.90
2022-09-17T02:56:24.907Z,99.90
2022-09-17T02:59:02.421Z,99.90
2022-09-17T03:01:35.451Z,99.90
2022-09-17T03:04:05.300Z,99.90
2022-09-17T03:06:33.504Z,99.90
2022-09-17T03:09:01.357Z,99.90
2022-09-17T03:11:31.804Z,99.90
2022-09-17T03:14:00.236Z,99.90
2022-09-17T03:16:28.268Z,99.90
2022-09-17T03:18:56.299Z,99.90
2022-09-17T03:21:24.212Z,99.90
2022-09-17T03:23:53.343Z,99.90
2022-09-17T03:26:21.547Z,99.90
2022-09-17T03:28:49.542Z,99.90
2022-09-17T03:31:17.703Z,99.90
2022-09-17T03:33:45.684Z,99.90
2022-09-17T03:36:13.571Z,99.90
2022-09-17T03:38:44.440Z,99.90
2022-09-17T03:41:13.044Z,99.90
2022-09-17T03:43:41.153Z,99.90
2022-09-17T03:46:09.225Z,99.90
2022-09-17T03:48:39.930Z,99.90
2022-09-17T03:51:07.914Z,99.90
2022-09-17T03:53:35.914Z,99.90
2022-09-17T03:56:05.674Z,99.90
2022-09-17T03:58:34.061Z,99.90
2022-09-17T04:01:03.694Z,99.90
2022-09-17T04:03:34.862Z,99.90
2022-09-17T04:06:05.208Z,99.90
2022-09-17T04:08:34.433Z,99.90
2022-09-17T04:11:02.675Z,99.90
2022-09-17T04:13:31.718Z,99.90
2022-09-17T04:15:59.793Z,99.90
2022-09-17T04:18:27.815Z,99.90
2022-09-17T04:20:55.982Z,99.90
2022-09-17T04:23:24.054Z,99.90
2022-09-17T04:25:54.543Z,99.90
2022-09-17T04:28:22.445Z,99.90
2022-09-17T04:30:50.390Z,99.90
2022-09-17T04:33:18.355Z,99.90
2022-09-17T04:35:46.389Z,99.90
2022-09-17T04:38:18.734Z,99.90
2022-09-17T04:40:50.532Z,99.90
2022-09-17T04:43:18.561Z,99.90
2022-09-17T04:45:47.695Z,99.90
2022-09-17T04:48:18.701Z,99.90
2022-09-17T04:50:47.006Z,99.90
2022-09-17T04:53:15.000Z,99.80
2022-09-17T04:55:43.494Z,99.90
2022-09-17T04:58:11.836Z,99.40
2022-09-17T05:00:40.966Z,99.10
2022-09-17T05:03:11.403Z,99.30
2022-09-17T05:05:39.573Z,99.40
2022-09-17T05:08:08.779Z,99.40
2022-09-17T05:10:36.994Z,98.70
2022-09-17T05:13:04.933Z,98.40
2022-09-17T05:15:32.894Z,98.60
2022-09-17T05:18:01.182Z,98.40
2022-09-17T05:20:31.562Z,98.30
2022-09-17T05:23:00.146Z,99.30
2022-09-17T05:25:28.291Z,98.60
2022-09-17T05:27:56.734Z,98.30
2022-09-17T05:30:27.160Z,99.40
2022-09-17T05:33:02.196Z,98.70
2022-09-17T05:35:30.261Z,99.20
2022-09-17T05:37:59.581Z,98.90
2022-09-17T05:40:28.325Z,98.60
2022-09-17T05:43:03.168Z,98.30
2022-09-17T05:45:31.168Z,98.10
2022-09-17T05:48:00.181Z,98.40
2022-09-17T05:50:30.737Z,98.00
2022-09-17T05:53:06.131Z,98.50
2022-09-17T05:55:35.567Z,98.40
2022-09-17T05:58:11.472Z,99.20
2022-09-17T06:00:40.049Z,99.00
2022-09-17T06:03:09.228Z,98.50
2022-09-17T06:05:37.249Z,98.90
2022-09-17T06:08:05.991Z,98.70
2022-09-17T06:10:38.756Z,99.00
2022-09-17T06:13:06.972Z,98.90
2022-09-17T06:15:34.921Z,99.20
2022-09-17T06:18:02.986Z,99.90
2022-09-17T06:20:32.214Z,99.30
2022-09-17T06:23:00.249Z,99.40
2022-09-17T06:25:29.787Z,99.90
2022-09-17T06:27:57.772Z,99.90
2022-09-17T06:30:25.759Z,99.90
2022-09-17T06:32:53.759Z,99.90
2022-09-17T06:35:21.743Z,99.90
2022-09-17T06:37:49.851Z,99.90
2022-09-17T06:40:18.074Z,99.90
2022-09-17T06:42:46.129Z,99.90
2022-09-17T06:45:16.693Z,99.90
2022-09-17T06:47:45.293Z,99.90
2022-09-17T06:50:13.280Z,99.90
2022-09-17T06:52:48.004Z,99.80
2022-09-17T06:55:16.531Z,98.90
2022-09-17T06:57:44.720Z,98.00
2022-09-17T07:00:13.304Z,98.60
2022-09-17T07:02:41.860Z,98.20
2022-09-17T07:05:10.488Z,97.50
2022-09-17T07:07:39.468Z,97.80
2022-09-17T07:10:07.683Z,97.80
2022-09-17T07:12:40.191Z,98.40
2022-09-17T07:15:08.530Z,98.30
2022-09-17T07:17:36.561Z,99.00
2022-09-17T07:20:04.748Z,98.90
2022-09-17T07:22:36.165Z,98.30
2022-09-17T07:25:04.914Z,97.40
2022-09-17T07:27:32.871Z,97.30
2022-09-17T07:30:01.318Z,97.20
2022-09-17T07:32:30.660Z,98.00
2022-09-17T07:34:58.721Z,97.50
2022-09-17T07:37:26.756Z,96.50
2022-09-17T07:39:54.963Z,95.70
2022-09-17T07:42:23.100Z,94.50
2022-09-17T07:44:51.149Z,93.50
2022-09-17T07:47:19.059Z,92.30
2022-09-17T07:49:49.433Z,92.40
2022-09-17T07:52:17.514Z,91.80
2022-09-17T07:54:45.421Z,92.30
2022-09-17T07:57:13.492Z,92.40
2022-09-17T07:59:41.547Z,92.20
2022-09-17T08:02:13.354Z,93.00
2022-09-17T08:04:47.447Z,91.20
2022-09-17T08:07:15.642Z,90.20
2022-09-17T08:09:44.590Z,87.70
2022-09-17T08:12:12.669Z,84.60
2022-09-17T08:14:41.085Z,80.70
2022-09-17T08:17:09.089Z,78.90
2022-09-17T08:19:37.624Z,78.00
2022-09-17T08:22:06.637Z,75.30
2022-09-17T08:24:34.695Z,73.70
2022-09-17T08:27:05.340Z,70.50
2022-09-17T08:29:35.205Z,64.40
2022-09-17T08:32:04.420Z,61.80
2022-09-17T08:34:37.766Z,59.40
2022-09-17T08:37:09.005Z,59.40
2022-09-17T08:39:37.105Z,57.90
2022-09-17T08:42:08.244Z,54.50
2022-09-17T08:44:36.076Z,53.90
2022-09-17T08:47:11.134Z,53.00
2022-09-17T08:49:48.756Z,53.20
2022-09-17T08:52:36.848Z,50.60
2022-09-17T08:55:29.554Z,47.50
2022-09-17T08:58:03.673Z,49.20
2022-09-17T09:00:50.552Z,47.10
2022-09-17T09:03:26.266Z,46.90
2022-09-17T09:05:56.950Z,44.70
2022-09-17T09:08:35.263Z,50.20
2022-09-17T09:11:12.441Z,48.60
2022-09-17T09:13:49.107Z,48.20
2022-09-17T09:16:26.258Z,47.40
2022-09-17T09:19:01.465Z,47.80
2022-09-17T09:21:39.560Z,51.80
2022-09-17T09:24:17.313Z,47.30
2022-09-17T09:27:08.545Z,50.60
2022-09-17T09:29:42.863Z,51.20
2022-09-17T09:32:43.192Z,48.50
2022-09-17T09:35:44.334Z,52.30
2022-09-17T09:38:31.530Z,49.00
2022-09-17T09:41:14.812Z,54.90
2022-09-17T09:44:03.130Z,57.20
2022-09-17T09:46:32.693Z,59.00
2022-09-17T09:49:24.413Z,61.00
2022-09-17T09:51:59.323Z,62.20
2022-09-17T09:54:42.712Z,64.00
2022-09-17T09:57:15.701Z,67.10
2022-09-17T09:59:43.871Z,66.80
2022-09-17T10:02:12.112Z,66.20
2022-09-17T10:04:40.192Z,67.50
2022-09-17T10:07:09.284Z,66.50
2022-09-17T10:09:38.682Z,69.00
2022-09-17T10:12:09.642Z,70.80
2022-09-17T10:14:41.396Z,72.00
2022-09-17T10:17:21.097Z,72.30
2022-09-17T10:20:11.085Z,72.90
2022-09-17T10:22:44.414Z,73.60
2022-09-17T10:25:24.608Z,73.70
2022-09-17T10:27:52.697Z,73.20
2022-09-17T10:30:20.826Z,74.00
2022-09-17T10:33:24.919Z,75.30
2022-09-17T10:36:02.122Z,76.20
2022-09-17T10:38:40.610Z,76.50
2022-09-17T10:41:11.693Z,76.40
2022-09-17T10:43:42.896Z,77.70
2022-09-17T10:46:14.209Z,78.50
2022-09-17T10:48:50.048Z,79.60
2022-09-17T10:51:22.670Z,80.50
2022-09-17T10:54:14.351Z,81.60
2022-09-17T10:56:47.054Z,81.90
2022-09-17T10:59:24.411Z,82.30
2022-09-17T11:01:55.439Z,82.70
2022-09-17T11:04:30.969Z,82.70
2022-09-17T11:07:01.700Z,82.30
2022-09-17T11:09:45.323Z,82.30
2022-09-17T11:12:31.835Z,82.70
2022-09-17T11:15:20.423Z,82.70
2022-09-17T11:18:03.540Z,82.60
2022-09-17T11:20:48.590Z,82.40
2022-09-17T11:23:35.863Z,83.10
2022-09-17T11:26:06.750Z,83.30
2022-09-17T11:28:46.307Z,83.10
2022-09-17T11:31:32.887Z,83.30
2022-09-17T11:34:00.946Z,83.40
2022-09-17T11:36:37.884Z,83.90
2022-09-17T11:39:11.637Z,83.90
2022-09-17T11:41:49.512Z,84.00
2022-09-17T11:44:19.764Z,84.50
2022-09-17T11:47:06.418Z,84.40
2022-09-17T11:49:37.685Z,84.50
2022-09-17T11:52:12.629Z,85.40
2022-09-17T11:55:00.838Z,85.70
2022-09-17T11:57:37.442Z,86.60
2022-09-17T12:00:09.041Z,85.40
2022-09-17T12:02:46.401Z,85.40
2022-09-17T12:05:23.193Z,85.30
2022-09-17T12:08:09.309Z,84.60
2022-09-17T12:10:48.672Z,83.70
2022-09-17T12:13:23.472Z,82.70
2022-09-17T12:15:56.719Z,82.30
2022-09-17T12:18:33.421Z,81.20
2022-09-17T12:21:08.999Z,79.20
2022-09-17T12:23:39.736Z,77.90
2022-09-17T12:26:16.545Z,76.90
2022-09-17T12:29:22.431Z,76.00
2022-09-17T12:32:19.378Z,75.10
2022-09-17T12:35:08.531Z,75.20
2022-09-17T12:37:54.209Z,76.40
2022-09-17T12:40:29.969Z,77.10
2022-09-17T12:43:01.212Z,77.70
2022-09-17T12:45:49.893Z,77.60
2022-09-17T12:48:37.328Z,77.70
2022-09-17T12:51:24.212Z,77.70
2022-09-17T12:53:54.481Z,77.30
2022-09-17T12:56:45.692Z,77.20
2022-09-17T12:59:16.528Z,75.80
2022-09-17T13:01:48.102Z,75.90
2022-09-17T13:04:59.530Z,76.10
2022-09-17T13:07:41.566Z,75.80
2022-09-17T13:10:17.797Z,75.70
2022-09-17T13:12:57.270Z,75.00
2022-09-17T13:15:40.470Z,75.30
2022-09-17T13:18:30.874Z,75.50
2022-09-17T13:21:13.541Z,76.20
2022-09-17T13:23:49.855Z,76.90
2022-09-17T13:26:22.719Z,77.40
2022-09-17T13:28:51.682Z,78.00
2022-09-17T13:31:21.096Z,78.60
2022-09-17T13:33:50.760Z,79.20
2022-09-17T13:36:37.093Z,79.40
2022-09-17T13:39:06.069Z,79.60
2022-09-17T13:41:37.076Z,80.00
2022-09-17T13:44:08.413Z,80.10
2022-09-17T13:46:39.885Z,79.90
2022-09-17T13:49:16.540Z,79.60
2022-09-17T13:51:47.344Z,79.20
2022-09-17T13:54:16.427Z,78.80
2022-09-17T13:56:46.364Z,78.30
2022-09-17T13:59:16.991Z,78.00
2022-09-17T14:02:03.826Z,78.50
2022-09-17T14:04:37.816Z,78.60
2022-09-17T14:07:24.576Z,78.10
2022-09-17T14:09:59.807Z,77.90
2022-09-17T14:12:48.958Z,78.40
2022-09-17T14:15:36.219Z,78.80
2022-09-17T14:18:27.776Z,78.80
2022-09-17T14:21:15.038Z,79.00
2022-09-17T14:23:44.569Z,79.00
2022-09-17T14:26:32.827Z,79.30
2022-09-17T14:29:06.902Z,80.20
2022-09-17T14:31:37.903Z,80.80
2022-09-17T14:34:07.085Z,81.40
2022-09-17T14:36:37.926Z,81.70
2022-09-17T14:39:11.619Z,82.10
2022-09-17T14:41:41.128Z,82.40
2022-09-17T14:44:35.500Z,83.10
2022-09-17T14:47:08.184Z,83.40
2022-09-17T14:49:37.663Z,83.50
2022-09-17T14:52:25.742Z,83.90
2022-09-17T14:55:17.304Z,83.90
2022-09-17T14:57:46.994Z,84.40
2022-09-17T15:00:21.962Z,85.10
2022-09-17T15:02:55.958Z,85.30
2022-09-17T15:05:24.023Z,86.00
2022-09-17T15:07:52.188Z,86.30
2022-09-17T15:10:21.558Z,87.00
2022-09-17T15:12:50.772Z,87.40
2022-09-17T15:15:20.897Z,87.70
2022-09-17T15:17:49.690Z,88.20
2022-09-17T15:20:24.511Z,88.80
2022-09-17T15:23:01.744Z,89.20
2022-09-17T15:25:30.498Z,89.50
2022-09-17T15:28:00.125Z,89.70
2022-09-17T15:30:28.206Z,90.00
2022-09-17T15:32:57.941Z,90.20
2022-09-17T15:35:30.569Z,90.30
2022-09-17T15:40:46.993Z,90.60
2022-09-17T15:43:17.939Z,90.80
2022-09-17T15:45:45.928Z,90.60
2022-09-17T15:48:29.141Z,90.70
2022-09-17T15:50:58.739Z,90.90
2022-09-17T15:53:30.955Z,91.00
2022-09-17T15:56:00.755Z,91.00
2022-09-17T15:58:30.551Z,91.20
2022-09-17T16:01:16.996Z,91.20
2022-09-17T16:03:45.075Z,91.20
2022-09-17T16:06:19.350Z,91.40
2022-09-17T16:08:48.538Z,91.50
2022-09-17T16:11:17.157Z,91.70
2022-09-17T16:13:53.974Z,91.70
2022-09-17T16:16:23.076Z,91.80
2022-09-17T16:18:51.861Z,92.00
2022-09-17T16:21:20.331Z,91.90
2022-09-17T16:23:48.291Z,91.50
2022-09-17T16:26:18.629Z,91.40
2022-09-17T16:28:47.363Z,91.70
2022-09-17T16:31:17.626Z,91.70
2022-09-17T16:33:45.971Z,91.70
2022-09-17T16:36:16.546Z,91.80
2022-09-17T16:38:44.921Z,91.90
2022-09-17T16:41:14.736Z,92.00
2022-09-17T16:43:42.696Z,91.90
2022-09-17T16:46:11.883Z,91.80
2022-09-17T16:48:44.761Z,91.90
2022-09-17T16:51:13.903Z,92.20
2022-09-17T16:53:42.754Z,92.00
2022-09-17T16:56:11.603Z,92.10
2022-09-17T16:58:40.543Z,92.20
2022-09-17T17:01:12.742Z,92.20
2022-09-17T17:03:43.803Z,92.10
2022-09-17T17:06:21.958Z,92.30
2022-09-17T17:08:52.811Z,92.40
2022-09-17T17:11:20.890Z,92.30
2022-09-17T17:13:49.109Z,92.30
2022-09-17T17:16:21.589Z,92.30
2022-09-17T17:18:53.766Z,92.30
2022-09-17T17:21:21.805Z,92.30
2022-09-17T17:23:49.961Z,92.20
2022-09-17T17:26:18.175Z,92.60
2022-09-17T17:28:47.064Z,92.60
2022-09-17T17:31:15.143Z,92.50
2022-09-17T17:33:45.674Z,92.50
2022-09-17T17:36:13.881Z,92.60
2022-09-17T17:38:44.168Z,92.70
2022-09-17T17:41:14.857Z,92.80
2022-09-17T17:43:45.830Z,92.90
2022-09-17T17:46:15.937Z,93.00
2022-09-17T17:48:44.275Z,93.20
2022-09-17T17:51:12.487Z,93.20
2022-09-17T17:53:43.589Z,93.20
2022-09-17T17:56:12.371Z,93.30
2022-09-17T17:58:41.841Z,93.30
2022-09-17T18:01:17.253Z,93.30
2022-09-17T18:03:48.614Z,93.40
2022-09-17T18:06:16.750Z,93.50
2022-09-17T18:08:44.885Z,93.60
2022-09-17T18:11:16.159Z,93.70
2022-09-17T18:27:49.855Z,94.30
2022-09-17T18:30:18.210Z,94.70
2022-09-17T18:32:51.894Z,94.30
2022-09-17T18:35:20.446Z,93.80
2022-09-17T18:37:48.459Z,92.20
2022-09-17T18:40:17.297Z,92.50
2022-09-17T18:42:45.278Z,93.10
2022-09-17T18:45:13.420Z,93.30
2022-09-17T18:47:41.479Z,93.10
2022-09-17T18:50:14.760Z,91.90
2022-09-17T18:52:42.799Z,91.60
2022-09-17T18:55:11.202Z,91.50
2022-09-17T19:03:35.214Z,92.30
2022-09-17T19:06:04.656Z,93.00
2022-09-17T19:08:32.894Z,93.40
2022-09-17T19:11:00.863Z,93.60
2022-09-17T19:13:33.586Z,93.50
2022-09-17T19:16:02.874Z,93.10
2022-09-17T19:18:31.133Z,93.50
2022-09-17T19:21:10.514Z,93.80
2022-09-17T19:23:56.755Z,94.10
2022-09-17T19:26:26.005Z,94.30
2022-09-17T19:28:58.201Z,94.70
2022-09-17T19:31:27.503Z,95.00
2022-09-17T19:33:56.825Z,95.20
2022-09-17T19:36:28.000Z,94.90
2022-09-17T19:38:59.320Z,95.30
2022-09-17T19:41:28.355Z,95.50
2022-09-17T19:43:57.660Z,95.50
2022-09-17T19:46:28.503Z,95.60
2022-09-17T19:48:57.536Z,95.70
2022-09-17T19:51:26.704Z,95.80
2022-09-17T19:53:54.709Z,96.00
2022-09-17T19:56:26.524Z,96.10
2022-09-17T19:59:00.037Z,96.10
2022-09-17T20:01:31.383Z,96.30
2022-09-17T20:04:02.514Z,96.40
2022-09-17T20:06:34.174Z,96.40
2022-09-17T20:09:05.000Z,96.50
2022-09-17T20:11:35.671Z,96.50
2022-09-17T20:14:09.679Z,96.60
2022-09-17T20:16:38.898Z,96.70
2022-09-17T20:19:08.496Z,96.70
2022-09-17T20:21:37.409Z,96.70
2022-09-17T20:24:06.296Z,96.60
2022-09-17T20:26:34.636Z,96.80
2022-09-17T20:29:03.440Z,96.80
2022-09-17T20:31:32.313Z,97.00
2022-09-17T20:34:04.267Z,97.10
2022-09-17T20:36:33.974Z,97.20
2022-09-17T20:39:22.337Z,97.30
2022-09-17T20:41:50.603Z,97.20
2022-09-17T20:44:18.811Z,97.30
2022-09-17T20:46:47.370Z,97.30
2022-09-17T20:49:15.668Z,97.30
2022-09-17T20:56:35.798Z,97.20
2022-09-17T20:59:34.450Z,97.60
2022-09-17T21:02:06.126Z,97.70
2022-09-17T21:04:36.533Z,97.70
2022-09-17T21:07:07.006Z,97.90
2022-09-17T21:09:42.247Z,97.90
2022-09-17T21:12:10.627Z,97.80
2022-09-17T21:14:38.988Z,98.10
2022-09-17T21:17:09.397Z,97.80
2022-09-17T21:19:39.871Z,97.20
2022-09-17T21:22:12.744Z,98.20
2022-09-17T21:24:40.714Z,98.20
2022-09-17T21:27:09.714Z,98.10
2022-09-17T21:29:42.453Z,98.10
2022-09-17T21:32:10.448Z,98.30
2022-09-17T21:34:38.494Z,98.30
2022-09-17T21:37:06.758Z,98.30
2022-09-17T21:39:35.938Z,98.50
2022-09-17T21:42:06.147Z,98.60
2022-09-17T21:44:34.138Z,98.60
2022-09-17T21:47:02.280Z,98.50
2022-09-17T21:49:35.123Z,98.60
2022-09-17T21:52:05.522Z,98.70
2022-09-17T21:59:49.221Z,98.50
2022-09-17T22:02:17.940Z,99.00
2022-09-17T22:04:46.273Z,99.10
2022-09-17T22:07:17.047Z,99.20
2022-09-17T22:09:45.177Z,99.20
2022-09-17T22:12:13.257Z,99.10
2022-09-17T22:14:41.334Z,99.20
2022-09-17T22:17:09.401Z,99.20
2022-09-17T22:19:37.375Z,99.30
2022-09-17T22:22:05.477Z,99.20
2022-09-17T22:24:33.656Z,99.40
2022-09-17T22:27:01.686Z,99.20
2022-09-17T22:29:31.904Z,99.50
2022-09-17T22:32:00.118Z,99.50
2022-09-17T22:34:28.202Z,99.50
2022-09-17T22:36:56.206Z,99.50
2022-09-17T22:39:24.339Z,99.40
2022-09-17T22:41:55.015Z,99.50
2022-09-17T22:44:23.089Z,99.50
2022-09-17T22:46:51.953Z,99.60
2022-09-17T22:49:23.130Z,99.80
2022-09-17T22:51:51.337Z,99.90
2022-09-17T22:54:19.411Z,99.90
2022-09-17T22:56:47.958Z,99.90
2022-09-17T22:59:16.090Z,99.90
2022-09-17T23:01:44.774Z,99.90
2022-09-17T23:04:13.677Z,99.90
2022-09-17T23:06:44.463Z,99.90
2022-09-17T23:09:14.000Z,99.90
2022-09-17T23:11:42.234Z,99.90
2022-09-17T23:14:12.364Z,99.90
2022-09-17T23:16:45.164Z,99.90
2022-09-17T23:19:16.921Z,99.90
2022-09-17T23:21:46.309Z,99.90
2022-09-17T23:24:19.195Z,99.90
2022-09-17T23:26:47.547Z,99.90
2022-09-17T23:29:16.008Z,99.90
2022-09-17T23:31:44.009Z,99.90
2022-09-17T23:34:12.109Z,99.90
2022-09-17T23:36:40.741Z,99.90
2022-09-17T23:39:09.500Z,99.90
2022-09-17T23:41:38.488Z,99.90
2022-09-17T23:44:12.077Z,99.90
2022-09-17T23:46:43.616Z,99.90
2022-09-17T23:49:12.106Z,99.90
2022-09-17T23:51:42.594Z,99.90
2022-09-17T23:54:10.856Z,99.90
2022-09-17T23:56:38.956Z,99.90
2022-09-17T23:59:09.742Z,99.90
